Time;durP1;ratioP1;P1;durP2;ratioP2;P2;SDS_P1;SDS_P2;PMS_P1;PMS_P2;Temp;Humidity;BMP_temperature;BMP_pressure;BME280_temperature;BME280_humidity;BME280_pressure;Samples;Min_cycle;Max_cycle;Signal;HPM_P1;HPM_P2
2022/01/17 00:01:37;;;;;;;54.40;26.92;;;;;;;1.32;81.08;100138.28;4094984;28;20263;-53
2022/01/17 00:03:39;;;;;;;46.67;25.63;;;;;;;1.35;80.38;100137.97;4078413;28;20212;-53
2022/01/17 00:05:41;;;;;;;40.25;25.95;;;;;;;1.29;80.71;100133.19;4109093;28;21223;-53
2022/01/17 00:07:43;;;;;;;37.45;24.33;;;;;;;1.38;80.46;100137.69;4109862;28;20259;-52
2022/01/17 00:09:45;;;;;;;46.97;26.10;;;;;;;1.39;80.66;100128.59;4095169;28;20215;-52
2022/01/17 00:11:48;;;;;;;40.95;24.65;;;;;;;1.39;80.54;100142.06;4094667;28;20327;-52
2022/01/17 00:13:50;;;;;;;48.70;26.95;;;;;;;1.30;80.64;100136.75;4081011;29;20581;-51
2022/01/17 00:18:52;;;;;;;49.28;26.25;;;;;;;1.28;81.24;100136.88;4046139;28;20206;-53
2022/01/17 00:20:52;;;;;;;45.03;24.75;;;;;;;1.34;81.07;100130.06;4097363;28;20281;-52
2022/01/17 00:22:54;;;;;;;32.08;21.83;;;;;;;1.34;80.44;100141.66;4094897;28;20558;-52
2022/01/17 00:24:55;;;;;;;44.72;26.30;;;;;;;1.30;81.05;100134.91;4107869;28;20313;-52
2022/01/17 00:26:57;;;;;;;40.90;24.67;;;;;;;1.28;80.64;100128.78;4094167;29;20203;-52
2022/01/17 00:28:59;;;;;;;42.72;25.95;;;;;;;1.29;81.05;100141.28;4078733;28;20216;-52
2022/01/17 00:31:04;;;;;;;41.92;24.75;;;;;;;1.34;80.82;100135.44;4078624;29;20232;-54
2022/01/17 00:33:06;;;;;;;32.70;22.67;;;;;;;1.37;80.63;100145.91;4093363;28;20215;-52
2022/01/17 00:35:08;;;;;;;33.05;23.00;;;;;;;1.34;80.85;100141.66;4094652;28;20235;-52
2022/01/17 00:37:10;;;;;;;34.53;22.90;;;;;;;1.32;80.70;100143.69;4110563;28;20679;-52
2022/01/17 00:39:12;;;;;;;34.88;21.90;;;;;;;1.33;80.35;100131.88;4092366;28;20638;-52
2022/01/17 00:41:14;;;;;;;38.10;22.63;;;;;;;1.31;80.89;100123.13;4109829;28;20239;-52
2022/01/17 00:43:17;;;;;;;37.03;22.27;;;;;;;1.32;80.27;100129.34;4093703;28;20207;-52
2022/01/17 00:45:25;;;;;;;30.13;21.30;;;;;;;1.35;79.92;100127.19;4108504;28;20294;-52
2022/01/17 00:47:26;;;;;;;24.23;16.58;;;;;;;1.29;80.41;100132.34;4110389;28;20217;-53
2022/01/17 00:49:28;;;;;;;29.08;21.48;;;;;;;1.32;80.46;100132.03;4093755;28;20212;-52
2022/01/17 00:51:30;;;;;;;32.97;19.65;;;;;;;1.34;80.09;100130.88;4079539;28;21186;-52
2022/01/17 00:53:34;;;;;;;29.17;20.13;;;;;;;1.31;80.56;100123.13;4093424;28;20243;-52
2022/01/17 00:55:37;;;;;;;40.30;21.27;;;;;;;1.37;80.60;100125.22;4108296;28;20266;-52
2022/01/17 00:57:40;;;;;;;31.90;20.05;;;;;;;1.27;80.19;100124.41;4089913;28;20262;-52
2022/01/17 00:59:42;;;;;;;26.35;20.33;;;;;;;1.29;80.63;100119.69;4093051;29;20294;-52
2022/01/17 01:01:43;;;;;;;21.23;17.80;;;;;;;1.26;80.10;100117.31;4110206;28;20302;-51
2022/01/17 01:03:46;;;;;;;25.58;17.92;;;;;;;1.35;80.43;100121.78;4094512;28;20260;-52
2022/01/17 01:05:48;;;;;;;24.27;20.35;;;;;;;1.33;80.40;100126.50;4109928;28;20215;-52
2022/01/17 01:07:51;;;;;;;27.98;20.65;;;;;;;1.27;80.46;100123.56;4077900;28;20220;-51
2022/01/17 01:10:02;;;;;;;24.67;18.80;;;;;;;1.30;80.38;100129.50;4096721;28;20207;-53
2022/01/17 01:12:04;;;;;;;19.60;17.42;;;;;;;1.31;79.87;100136.59;4093946;28;20210;-53
2022/01/17 01:14:06;;;;;;;27.02;17.65;;;;;;;1.39;79.96;100138.50;4096502;28;20219;-52
2022/01/17 01:18:30;;;;;;;20.83;18.63;;;;;;;1.40;80.27;100151.84;4110262;28;20210;-52
2022/01/17 01:29:49;;;;;;;26.40;18.08;;;;;;;1.39;80.21;100171.72;4110272;28;20254;-51
2022/01/17 01:32:14;;;;;;;24.42;18.55;;;;;;;1.37;80.36;100171.03;4109028;28;20811;-52
2022/01/17 01:34:14;;;;;;;29.08;18.25;;;;;;;1.37;80.00;100173.75;4108097;28;20210;-51
2022/01/17 01:36:23;;;;;;;20.83;17.40;;;;;;;1.35;79.74;100170.31;4096648;28;20258;-52
2022/01/17 01:38:25;;;;;;;34.70;19.33;;;;;;;1.27;80.16;100170.25;4097709;28;20206;-51
2022/01/17 01:40:27;;;;;;;29.48;20.83;;;;;;;1.32;80.20;100159.84;4097065;28;20231;-51
2022/01/17 01:42:31;;;;;;;34.08;21.98;;;;;;;1.32;80.67;100154.47;4112610;28;20693;-52
2022/01/17 01:44:33;;;;;;;22.92;18.00;;;;;;;1.37;79.79;100146.78;4095738;28;20968;-53
2022/01/17 01:46:35;;;;;;;25.48;21.00;;;;;;;1.31;80.47;100146.53;4099922;28;20207;-52
2022/01/17 01:48:37;;;;;;;25.40;20.92;;;;;;;1.31;80.30;100152.78;4098249;28;20274;-52
2022/01/17 01:50:38;;;;;;;34.75;22.13;;;;;;;1.30;80.55;100161.88;4097203;28;20223;-52
2022/01/17 01:52:41;;;;;;;22.23;16.58;;;;;;;1.35;80.28;100156.84;4112748;28;20207;-52
2022/01/17 01:54:43;;;;;;;28.95;20.33;;;;;;;1.41;80.17;100158.09;4111536;28;20946;-52
2022/01/17 01:56:47;;;;;;;34.53;21.30;;;;;;;1.29;79.96;100154.75;4081508;29;20674;-52
2022/01/17 01:58:48;;;;;;;30.30;19.00;;;;;;;1.36;80.02;100160.41;4094953;28;20211;-52
2022/01/17 02:00:51;;;;;;;23.05;16.95;;;;;;;1.30;80.40;100156.47;4090369;28;20241;-52
2022/01/17 02:02:52;;;;;;;29.50;20.77;;;;;;;1.30;80.62;100153.78;4107082;28;20348;-52
2022/01/17 02:04:54;;;;;;;26.95;19.77;;;;;;;1.26;80.70;100160.47;4096210;28;20232;-53
2022/01/17 02:06:56;;;;;;;32.45;20.67;;;;;;;1.36;79.99;100153.19;4097726;28;20359;-52
2022/01/17 02:08:58;;;;;;;25.83;18.33;;;;;;;1.25;80.45;100169.56;4096554;28;20298;-53
2022/01/17 02:11:00;;;;;;;25.10;17.42;;;;;;;1.26;80.37;100182.03;4098465;28;20232;-52
2022/01/17 02:13:02;;;;;;;32.75;20.15;;;;;;;1.26;80.50;100187.41;4110965;28;20211;-53
2022/01/17 02:15:05;;;;;;;29.83;20.38;;;;;;;1.30;81.14;100188.84;4094278;28;20273;-53
2022/01/17 02:17:06;;;;;;;34.92;19.90;;;;;;;1.30;80.31;100191.53;4111519;28;20219;-53
2022/01/17 02:19:08;;;;;;;35.15;21.45;;;;;;;1.37;80.78;100189.06;4094251;29;20222;-53
2022/01/17 02:23:18;;;;;;;23.95;18.88;;;;;;;1.43;80.68;100172.28;4115170;28;20552;-52
2022/01/17 02:25:20;;;;;;;30.27;20.53;;;;;;;1.32;80.70;100170.66;4115206;28;20334;-53
2022/01/17 02:27:22;;;;;;;34.65;20.85;;;;;;;1.32;80.88;100165.25;4113070;28;20677;-52
2022/01/17 02:29:24;;;;;;;32.15;21.27;;;;;;;1.26;80.46;100168.53;4112633;28;20482;-52
2022/01/17 02:31:26;;;;;;;32.13;20.77;;;;;;;1.28;80.40;100168.41;4097841;28;20258;-52
2022/01/17 02:33:28;;;;;;;36.90;23.67;;;;;;;1.31;80.37;100168.94;4097175;28;20207;-52
2022/01/17 02:35:30;;;;;;;30.10;20.83;;;;;;;1.27;80.66;100170.25;4112117;28;21185;-52
2022/01/17 02:37:32;;;;;;;49.22;22.70;;;;;;;1.37;80.54;100176.44;4098214;28;20250;-53
2022/01/17 02:39:33;;;;;;;36.53;21.88;;;;;;;1.28;80.66;100180.03;4081414;29;20220;-51
2022/01/17 02:41:38;;;;;;;36.70;23.55;;;;;;;1.24;80.84;100173.25;4096233;28;20242;-51
2022/01/17 02:43:41;;;;;;;30.83;20.55;;;;;;;1.26;80.93;100184.72;4096224;28;20595;-52
2022/01/17 02:47:53;;;;;;;34.53;22.13;;;;;;;1.31;80.70;100171.66;4111340;28;20210;-53
2022/01/17 02:49:55;;;;;;;42.33;23.23;;;;;;;1.23;81.05;100165.31;4112196;28;20689;-53
2022/01/17 02:51:57;;;;;;;33.80;21.85;;;;;;;1.33;80.96;100172.34;4095038;28;20752;-52
2022/01/17 02:53:58;;;;;;;42.67;22.42;;;;;;;1.35;80.85;100174.88;4111682;28;20626;-52
2022/01/17 02:56:02;;;;;;;37.50;22.30;;;;;;;1.29;81.19;100170.94;4110669;28;20265;-52
2022/01/17 02:58:04;;;;;;;43.97;22.38;;;;;;;1.23;81.26;100182.34;4097025;28;20272;-52
2022/01/17 03:00:10;;;;;;;40.90;22.00;;;;;;;1.23;81.14;100165.31;4094430;29;20207;-53
2022/01/17 03:02:11;;;;;;;44.72;22.63;;;;;;;1.21;81.31;100162.75;4112462;28;20874;-52
2022/01/17 03:04:13;;;;;;;48.33;22.35;;;;;;;1.20;80.94;100160.22;4109756;28;20705;-52
2022/01/17 03:06:15;;;;;;;59.28;24.75;;;;;;;1.23;81.42;100155.38;4114941;28;20226;-51
2022/01/17 03:08:17;;;;;;;51.27;24.47;;;;;;;1.19;81.26;100148.59;4096944;28;20250;-51
2022/01/17 03:10:36;;;;;;;47.53;26.35;;;;;;;1.17;81.47;100156.00;4096488;29;20227;-51
2022/01/17 03:12:38;;;;;;;44.42;22.67;;;;;;;1.19;81.40;100143.19;4113196;28;20195;-51
2022/01/17 03:14:40;;;;;;;51.10;22.40;;;;;;;1.30;81.44;100129.50;4112228;28;20233;-51
2022/01/17 03:16:46;;;;;;;60.47;25.13;;;;;;;1.24;81.63;100137.34;4095959;29;20262;-50
2022/01/17 03:18:50;;;;;;;52.60;25.25;;;;;;;1.25;81.77;100131.81;4112885;28;20724;-52
2022/01/17 03:20:52;;;;;;;57.50;24.73;;;;;;;1.27;81.33;100150.53;4110625;28;20238;-52
2022/01/17 03:22:54;;;;;;;65.13;24.58;;;;;;;1.20;81.49;100157.53;4096502;28;20207;-53
2022/01/17 03:24:56;;;;;;;52.72;23.48;;;;;;;1.21;81.88;100151.97;4096105;28;20215;-51
2022/01/17 03:26:57;;;;;;;51.53;25.10;;;;;;;1.19;81.45;100151.28;4082785;28;20219;-51
2022/01/17 03:29:00;;;;;;;58.30;24.73;;;;;;;1.21;81.94;100151.97;4113337;28;21051;-51
2022/01/17 03:31:04;;;;;;;69.70;28.33;;;;;;;1.14;81.67;100150.88;4095542;28;20235;-51
2022/01/17 03:33:08;;;;;;;55.60;25.07;;;;;;;1.13;82.12;100153.72;4112109;28;20218;-51
2022/01/17 03:35:10;;;;;;;57.90;24.47;;;;;;;1.18;82.01;100152.28;4110823;28;20298;-50
2022/01/17 03:37:12;;;;;;;54.10;24.73;;;;;;;1.15;82.13;100147.19;4094779;28;20207;-51
2022/01/17 03:39:13;;;;;;;51.23;24.33;;;;;;;1.16;82.19;100148.91;4113091;28;20764;-54
2022/01/17 03:41:15;;;;;;;60.88;24.17;;;;;;;1.14;82.04;100156.28;4095222;28;20239;-51
2022/01/17 03:43:21;;;;;;;42.65;23.00;;;;;;;1.14;81.52;100172.44;4095666;28;20447;-51
2022/01/17 03:45:23;;;;;;;56.45;27.83;;;;;;;1.20;82.16;100161.06;4095681;28;20517;-51
2022/01/17 03:47:25;;;;;;;51.88;26.55;;;;;;;1.21;81.60;100157.34;4110484;28;20219;-50
2022/01/17 03:49:27;;;;;;;61.05;25.83;;;;;;;1.21;81.44;100168.16;4077831;28;20204;-51
2022/01/17 03:51:28;;;;;;;58.03;24.37;;;;;;;1.22;82.21;100153.66;4092860;28;20507;-52
2022/01/17 03:53:31;;;;;;;48.35;21.80;;;;;;;1.26;81.81;100155.06;4113222;28;20257;-51
2022/01/17 03:55:34;;;;;;;51.05;22.05;;;;;;;1.20;82.02;100166.44;4079198;29;20678;-50
2022/01/17 03:57:36;;;;;;;49.80;23.30;;;;;;;1.21;81.23;100148.44;4092224;28;20681;-53
2022/01/17 03:59:38;;;;;;;60.13;26.57;;;;;;;1.17;81.95;100157.81;4111389;28;20564;-52
2022/01/17 04:01:40;;;;;;;41.97;21.95;;;;;;;1.17;81.66;100156.00;4094206;28;20279;-52
2022/01/17 04:03:42;;;;;;;56.97;23.77;;;;;;;1.21;81.91;100148.44;4095211;28;20279;-52
2022/01/17 04:05:44;;;;;;;48.83;21.23;;;;;;;1.19;81.51;100148.59;4078911;28;20224;-52
2022/01/17 04:07:46;;;;;;;52.38;23.85;;;;;;;1.17;82.09;100160.50;4109451;28;20211;-52
2022/01/17 04:09:47;;;;;;;45.10;22.47;;;;;;;1.13;81.84;100164.50;4094113;28;20220;-52
2022/01/17 04:11:49;;;;;;;60.10;23.50;;;;;;;1.13;81.82;100165.34;4095936;29;20231;-52
2022/01/17 04:13:51;;;;;;;55.13;22.98;;;;;;;1.14;81.72;100161.66;4109014;28;20203;-51
2022/01/17 04:15:53;;;;;;;48.53;25.80;;;;;;;1.12;82.29;100157.41;4111322;28;20206;-51
2022/01/17 04:17:55;;;;;;;47.58;23.58;;;;;;;1.15;81.96;100157.13;4079515;28;20702;-52
2022/01/17 04:20:09;;;;;;;46.93;23.87;;;;;;;1.12;82.16;100152.03;4094932;28;20211;-52
2022/01/17 04:22:11;;;;;;;56.17;24.85;;;;;;;1.12;82.17;100157.41;4090513;28;20215;-52
2022/01/17 04:24:14;;;;;;;51.90;24.53;;;;;;;1.13;82.46;100151.03;4094331;29;20278;-53
2022/01/17 04:26:15;;;;;;;37.43;20.03;;;;;;;1.07;82.04;100144.41;4111213;28;20222;-53
2022/01/17 04:28:17;;;;;;;53.40;23.23;;;;;;;1.10;82.22;100119.84;4096212;28;20239;-52
2022/01/17 04:30:19;;;;;;;44.73;20.97;;;;;;;1.05;82.20;100114.06;4109757;28;20605;-51
2022/01/17 04:32:21;;;;;;;52.40;24.03;;;;;;;1.05;82.14;100116.75;4094272;28;20204;-51
2022/01/17 04:34:23;;;;;;;62.23;25.13;;;;;;;1.03;82.89;100126.84;4112244;28;20278;-52
2022/01/17 04:36:26;;;;;;;60.87;26.00;;;;;;;1.05;82.46;100127.53;4110580;28;20203;-52
2022/01/17 04:38:27;;;;;;;43.43;22.87;;;;;;;1.12;82.37;100131.31;4107698;28;20681;-53
2022/01/17 04:40:35;;;;;;;54.60;24.83;;;;;;;1.15;82.31;100131.00;4107474;28;20239;-53
2022/01/17 04:42:43;;;;;;;50.33;23.73;;;;;;;1.10;82.57;100127.94;4094552;28;20336;-53
2022/01/17 04:47:05;;;;;;;55.85;23.90;;;;;;;1.15;82.31;100141.78;4097299;28;20251;-52
2022/01/17 04:49:07;;;;;;;45.90;20.57;;;;;;;1.09;82.21;100134.31;4094799;28;20296;-52
2022/01/17 04:51:09;;;;;;;41.07;22.80;;;;;;;1.14;82.17;100137.41;4110669;28;20234;-52
2022/01/17 04:53:16;;;;;;;53.97;24.10;;;;;;;1.11;82.31;100148.50;4096481;28;20206;-53
2022/01/17 04:55:19;;;;;;;48.80;23.00;;;;;;;1.14;82.45;100150.03;4095345;29;20269;-52
2022/01/17 04:57:21;;;;;;;44.70;22.50;;;;;;;1.23;82.20;100141.91;4093486;28;20246;-52
2022/01/17 04:59:27;;;;;;;38.88;21.08;;;;;;;1.26;82.11;100149.69;4095535;28;20226;-52
2022/01/17 05:01:31;;;;;;;43.20;22.30;;;;;;;1.19;81.88;100148.59;4109378;28;20270;-51
2022/01/17 05:03:35;;;;;;;37.42;20.02;;;;;;;1.20;81.98;100158.38;4078844;28;21772;-53
2022/01/17 05:05:37;;;;;;;32.13;21.88;;;;;;;1.19;81.95;100164.75;4094707;28;20211;-53
2022/01/17 05:07:39;;;;;;;34.20;19.47;;;;;;;1.25;81.71;100158.78;4094502;28;20203;-52
2022/01/17 05:09:42;;;;;;;41.37;19.47;;;;;;;1.27;81.80;100182.88;4110224;28;20269;-53
2022/01/17 05:11:44;;;;;;;37.67;20.00;;;;;;;1.24;82.06;100180.47;4050737;28;20231;-52
2022/01/17 05:13:48;;;;;;;49.90;22.65;;;;;;;1.24;81.98;100193.97;4127121;28;20273;-52
2022/01/17 05:16:04;;;;;;;39.97;19.75;;;;;;;1.31;81.58;100182.44;4123261;28;20220;-52
2022/01/17 05:20:27;;;;;;;36.55;19.17;;;;;;;1.33;81.83;100175.03;4112534;28;20226;-52
2022/01/17 05:22:32;;;;;;;26.45;18.38;;;;;;;1.24;81.71;100173.25;4125949;28;20224;-52
2022/01/17 05:24:34;;;;;;;33.63;19.55;;;;;;;1.26;81.88;100168.53;4110303;28;20211;-53
2022/01/17 05:26:35;;;;;;;42.75;20.95;;;;;;;1.29;81.59;100162.84;4125471;28;20759;-52
2022/01/17 05:28:37;;;;;;;42.83;21.65;;;;;;;1.23;81.89;100160.78;4108636;28;20226;-53
2022/01/17 05:30:39;;;;;;;41.28;19.90;;;;;;;1.28;81.75;100169.25;4092220;28;20317;-53
2022/01/17 05:32:41;;;;;;;39.55;21.08;;;;;;;1.32;81.84;100178.72;4126032;28;20294;-53
2022/01/17 05:34:43;;;;;;;38.97;20.25;;;;;;;1.34;81.48;100175.91;4094307;28;20259;-53
2022/01/17 05:36:45;;;;;;;46.83;22.92;;;;;;;1.23;81.74;100179.66;4107414;28;20202;-52
2022/01/17 05:38:46;;;;;;;36.83;19.07;;;;;;;1.29;82.00;100181.72;4124898;28;20206;-53
2022/01/17 05:40:48;;;;;;;38.42;19.00;;;;;;;1.27;82.14;100189.13;4111438;28;20230;-53
2022/01/17 05:42:50;;;;;;;31.58;18.50;;;;;;;1.29;82.23;100186.28;4110448;28;20217;-53
2022/01/17 05:44:53;;;;;;;35.70;19.03;;;;;;;1.28;81.96;100182.72;4126382;28;20213;-51
2022/01/17 05:46:55;;;;;;;40.83;20.38;;;;;;;1.25;81.80;100180.34;4124957;28;20333;-52
2022/01/17 05:48:57;;;;;;;38.38;19.88;;;;;;;1.31;81.94;100177.03;4122751;28;20230;-53
2022/01/17 05:50:59;;;;;;;40.78;20.63;;;;;;;1.26;82.11;100165.84;4094326;28;20236;-53
2022/01/17 05:53:00;;;;;;;42.08;20.73;;;;;;;1.27;81.71;100167.53;4108324;28;20293;-52
2022/01/17 05:55:04;;;;;;;44.90;19.73;;;;;;;1.29;81.89;100170.09;4125700;28;20249;-52
2022/01/17 05:57:06;;;;;;;43.97;20.57;;;;;;;1.22;81.98;100169.84;4129310;28;20207;-51
2022/01/17 05:59:07;;;;;;;37.13;22.58;;;;;;;1.23;82.05;100170.69;4124327;28;20209;-52
2022/01/17 06:01:10;;;;;;;42.50;20.43;;;;;;;1.24;82.34;100167.88;4105811;28;20266;-52
2022/01/17 06:03:12;;;;;;;36.87;19.07;;;;;;;1.26;82.00;100165.84;4087334;28;20652;-52
2022/01/17 06:05:14;;;;;;;36.30;19.80;;;;;;;1.27;82.07;100161.31;4123206;28;21029;-52
2022/01/17 06:07:16;;;;;;;42.80;22.13;;;;;;;1.21;82.20;100167.31;4124755;28;20222;-52
2022/01/17 06:09:18;;;;;;;33.63;21.25;;;;;;;1.22;82.29;100159.06;4111049;28;20214;-51
2022/01/17 06:11:19;;;;;;;35.47;19.95;;;;;;;1.30;82.00;100167.25;4124659;28;20226;-52
2022/01/17 06:13:21;;;;;;;42.53;21.73;;;;;;;1.26;81.99;100182.03;4123552;28;20216;-51
2022/01/17 06:15:23;;;;;;;42.30;20.63;;;;;;;1.28;81.96;100188.09;4122435;28;20214;-51
2022/01/17 06:17:25;;;;;;;31.75;19.88;;;;;;;1.28;82.22;100190.81;4109455;28;20207;-53
2022/01/17 06:19:26;;;;;;;36.40;17.98;;;;;;;1.28;82.18;100190.81;4122841;28;20206;-52
2022/01/17 06:21:28;;;;;;;49.33;22.03;;;;;;;1.27;82.07;100190.97;4093644;28;20264;-52
2022/01/17 06:23:30;;;;;;;39.08;18.92;;;;;;;1.24;81.96;100180.47;4109173;28;20256;-53
2022/01/17 06:25:32;;;;;;;39.72;20.60;;;;;;;1.22;82.22;100180.63;4125589;28;20288;-52
2022/01/17 06:27:33;;;;;;;36.15;19.60;;;;;;;1.22;82.36;100185.19;4097903;28;20238;-52
2022/01/17 06:29:35;;;;;;;48.78;22.70;;;;;;;1.29;81.98;100191.66;4100014;28;20285;-52
2022/01/17 06:31:37;;;;;;;34.00;19.45;;;;;;;1.27;82.18;100194.50;4128249;28;20226;-52
2022/01/17 06:33:39;;;;;;;40.15;21.13;;;;;;;1.23;81.84;100193.13;4113442;28;20259;-52
2022/01/17 06:35:40;;;;;;;31.17;18.75;;;;;;;1.24;82.49;100202.03;4128604;28;20217;-53
2022/01/17 06:37:44;;;;;;;39.75;20.63;;;;;;;1.30;82.18;100210.41;4107956;28;20598;-53
2022/01/17 06:39:46;;;;;;;28.38;16.98;;;;;;;1.33;82.12;100210.09;4094430;28;20624;-53
2022/01/17 06:41:48;;;;;;;37.93;19.97;;;;;;;1.33;82.14;100220.88;4095588;28;20239;-53
2022/01/17 06:43:49;;;;;;;45.58;19.55;;;;;;;1.32;82.21;100221.88;4126593;28;20221;-52
2022/01/17 06:45:51;;;;;;;36.30;18.85;;;;;;;1.25;82.10;100217.22;4128950;28;20245;-52
2022/01/17 06:47:55;;;;;;;28.33;18.52;;;;;;;1.27;82.03;100199.91;4111866;28;20226;-52
2022/01/17 06:49:57;;;;;;;31.65;16.60;;;;;;;1.23;82.06;100193.13;4126831;28;20206;-52
2022/01/17 06:51:58;;;;;;;36.95;19.08;;;;;;;1.27;82.21;100188.28;4113858;28;20458;-52
2022/01/17 06:54:06;;;;;;;40.97;21.50;;;;;;;1.33;82.32;100183.13;4111518;28;20338;-53
2022/01/17 06:56:08;;;;;;;25.73;17.27;;;;;;;1.24;81.90;100186.72;4109926;28;21129;-52
2022/01/17 06:58:09;;;;;;;37.03;18.93;;;;;;;1.24;82.41;100200.22;4111286;28;20657;-52
2022/01/17 07:00:12;;;;;;;44.47;19.70;;;;;;;1.21;82.47;100203.19;4128735;28;20206;-52
2022/01/17 07:02:20;;;;;;;44.63;18.93;;;;;;;1.24;82.13;100185.88;4097543;28;20297;-52
2022/01/17 07:04:21;;;;;;;42.42;20.55;;;;;;;1.27;82.42;100189.13;4098156;28;20645;-53
2022/01/17 07:06:23;;;;;;;39.72;19.70;;;;;;;1.28;82.04;100206.16;4127116;28;20632;-53
2022/01/17 07:08:25;;;;;;;51.28;21.00;;;;;;;1.27;82.22;100215.25;4097194;28;20196;-52
2022/01/17 07:10:28;;;;;;;53.38;22.95;;;;;;;1.25;82.79;100228.00;4113437;28;20254;-53
2022/01/17 07:12:30;;;;;;;37.90;22.33;;;;;;;1.29;82.17;100241.03;4109082;28;20215;-52
2022/01/17 07:14:32;;;;;;;53.47;22.17;;;;;;;1.26;82.58;100252.13;4112069;28;20267;-52
2022/01/17 07:16:34;;;;;;;45.78;23.38;;;;;;;1.30;82.34;100264.31;4127725;28;20783;-52
2022/01/17 07:18:35;;;;;;;47.95;21.15;;;;;;;1.34;82.20;100263.00;4125806;28;20716;-53
2022/01/17 07:20:37;;;;;;;45.70;20.65;;;;;;;1.30;82.06;100269.72;4125126;28;20278;-52
2022/01/17 07:22:39;;;;;;;54.53;20.00;;;;;;;1.32;82.43;100278.50;4123220;28;20198;-52
2022/01/17 07:24:44;;;;;;;50.80;21.77;;;;;;;1.30;82.32;100296.69;4092295;28;20207;-53
2022/01/17 07:26:46;;;;;;;52.10;23.57;;;;;;;1.32;82.38;100289.28;4125725;28;20612;-52
2022/01/17 07:28:48;;;;;;;39.58;19.80;;;;;;;1.32;82.06;100283.88;4092697;28;20593;-52
2022/01/17 07:30:50;;;;;;;42.50;19.52;;;;;;;1.42;82.03;100290.06;4095379;28;20654;-52
2022/01/17 07:32:52;;;;;;;57.75;27.40;;;;;;;1.39;82.34;100281.44;4110516;28;20449;-53
2022/01/17 07:34:53;;;;;;;60.53;23.95;;;;;;;1.36;82.42;100277.22;4122044;28;20265;-52
2022/01/17 07:36:55;;;;;;;50.97;29.75;;;;;;;1.32;82.04;100262.31;4109748;28;20787;-54
2022/01/17 07:38:58;;;;;;;50.63;24.85;;;;;;;1.31;81.80;100249.84;4125912;28;20672;-55
2022/01/17 07:40:59;;;;;;;41.90;22.58;;;;;;;1.31;82.06;100249.84;4096184;28;20238;-54
2022/01/17 07:43:21;;;;;;;35.15;19.02;;;;;;;1.35;82.31;100251.22;4114017;28;20234;-54
2022/01/17 07:45:25;;;;;;;43.70;20.77;;;;;;;1.33;82.29;100250.53;4113489;28;20373;-53
2022/01/17 07:47:40;;;;;;;38.30;20.47;;;;;;;1.37;82.14;100267.25;4127428;28;20222;-53
2022/01/17 07:49:45;;;;;;;46.15;19.35;;;;;;;1.42;82.23;100268.50;4112498;28;20284;-54
2022/01/17 07:52:08;;;;;;;38.38;20.70;;;;;;;1.43;82.22;100258.56;4111718;28;20198;-56
2022/01/17 07:54:14;;;;;;;55.80;22.15;;;;;;;1.37;82.13;100248.38;4109026;28;20249;-55
2022/01/17 07:56:16;;;;;;;44.03;20.80;;;;;;;1.35;82.53;100262.00;4112381;28;20668;-53
2022/01/17 07:58:18;;;;;;;43.28;22.42;;;;;;;1.34;82.06;100254.09;4109762;28;20199;-53
2022/01/17 08:00:22;;;;;;;32.53;19.97;;;;;;;1.37;82.35;100248.38;4112840;28;20223;-53
2022/01/17 08:02:24;;;;;;;57.70;22.27;;;;;;;1.41;82.27;100242.53;4110921;28;20248;-54
2022/01/17 08:04:26;;;;;;;50.30;21.27;;;;;;;1.42;82.10;100252.31;4110818;28;20273;-53
2022/01/17 08:06:36;;;;;;;58.38;23.08;;;;;;;1.39;82.53;100246.38;4126503;28;20205;-54
2022/01/17 08:08:39;;;;;;;44.72;23.30;;;;;;;1.44;82.57;100253.03;4113928;28;20285;-52
2022/01/17 08:10:40;;;;;;;39.03;20.73;;;;;;;1.46;81.99;100259.13;4110602;28;20239;-51
2022/01/17 08:12:46;;;;;;;38.55;21.00;;;;;;;1.44;81.83;100265.66;4127344;28;20300;-54
2022/01/17 08:14:48;;;;;;;39.40;19.83;;;;;;;1.48;82.19;100284.09;4126487;28;20206;-52
2022/01/17 08:16:51;;;;;;;35.20;21.60;;;;;;;1.50;81.88;100284.81;4099277;28;20211;-52
2022/01/17 08:18:53;;;;;;;47.37;20.33;;;;;;;1.57;81.73;100283.22;4094806;28;20239;-53
2022/01/17 08:20:58;;;;;;;34.65;20.90;;;;;;;1.54;82.05;100291.59;4124434;28;20230;-52
2022/01/17 08:23:02;;;;;;;40.80;21.77;;;;;;;1.50;82.09;100295.59;4124671;28;20239;-52
2022/01/17 08:25:05;;;;;;;43.78;24.02;;;;;;;1.65;81.75;100307.59;4093908;28;20258;-53
2022/01/17 08:27:10;;;;;;;37.28;19.60;;;;;;;1.60;82.01;100315.25;4111221;28;20354;-53
2022/01/17 08:29:13;;;;;;;40.08;20.48;;;;;;;1.60;81.87;100326.06;4111111;28;20210;-54
2022/01/17 08:31:15;;;;;;;44.28;25.58;;;;;;;1.62;82.13;100332.13;4112359;28;20223;-55
2022/01/17 08:33:24;;;;;;;52.35;25.27;;;;;;;1.66;81.69;100330.84;4117710;28;20199;-55
2022/01/17 08:35:26;;;;;;;32.15;17.15;;;;;;;1.78;81.34;100329.66;4110826;28;20289;-54
2022/01/17 08:37:30;;;;;;;43.00;20.70;;;;;;;1.77;81.33;100333.38;4096822;28;20215;-55
2022/01/17 08:39:32;;;;;;;23.80;17.10;;;;;;;1.79;81.59;100330.50;4123545;28;20285;-53
2022/01/17 08:41:34;;;;;;;28.23;19.38;;;;;;;1.81;81.19;100323.94;4111328;28;20265;-53
2022/01/17 08:43:36;;;;;;;40.50;18.83;;;;;;;1.80;81.83;100327.66;4109243;28;20211;-54
2022/01/17 08:45:38;;;;;;;39.78;19.58;;;;;;;1.84;81.29;100329.06;4108256;28;20680;-53
2022/01/17 08:47:46;;;;;;;31.15;18.55;;;;;;;1.89;80.88;100315.94;4109914;28;20750;-53
2022/01/17 08:49:51;;;;;;;36.92;20.65;;;;;;;1.90;81.46;100317.66;4109587;28;20207;-54
2022/01/17 08:51:54;;;;;;;30.15;19.05;;;;;;;1.88;81.42;100308.84;4128082;28;20225;-54
2022/01/17 08:53:56;;;;;;;37.53;19.45;;;;;;;1.89;81.45;100315.13;4108579;28;20202;-53
2022/01/17 08:55:58;;;;;;;39.42;20.17;;;;;;;1.82;80.89;100309.47;4108888;28;20207;-53
2022/01/17 08:58:02;;;;;;;32.55;20.42;;;;;;;1.84;81.15;100303.91;4124686;28;20206;-55
2022/01/17 09:00:11;;;;;;;30.98;20.27;;;;;;;1.90;80.75;100290.69;4124992;28;20206;-55
2022/01/17 09:02:14;;;;;;;31.38;20.42;;;;;;;1.90;81.05;100301.47;4109881;28;20238;-56
2022/01/17 09:04:16;;;;;;;27.50;19.27;;;;;;;1.83;81.47;100304.91;4125139;28;20210;-55
2022/01/17 09:06:19;;;;;;;29.60;18.52;;;;;;;1.78;81.49;100312.63;4126623;28;20624;-54
2022/01/17 09:08:22;;;;;;;45.10;21.33;;;;;;;1.81;81.32;100321.25;4109940;28;20725;-53
2022/01/17 09:10:24;;;;;;;30.42;20.63;;;;;;;1.83;81.51;100324.69;4111314;28;20219;-54
2022/01/17 09:12:25;;;;;;;32.58;19.65;;;;;;;1.87;81.87;100334.16;4108224;28;20767;-53
2022/01/17 09:14:27;;;;;;;35.17;20.17;;;;;;;1.91;81.08;100335.56;4108759;28;20207;-53
2022/01/17 09:16:29;;;;;;;28.40;17.90;;;;;;;1.97;81.25;100329.56;4091499;28;20223;-52
2022/01/17 09:18:31;;;;;;;33.53;19.52;;;;;;;1.96;81.59;100344.06;4108593;28;20294;-53
2022/01/17 09:20:34;;;;;;;40.63;21.00;;;;;;;2.03;81.50;100337.06;4122865;28;20228;-53
2022/01/17 09:22:37;;;;;;;40.08;21.58;;;;;;;2.04;80.92;100327.94;4125594;28;20201;-52
2022/01/17 09:24:39;;;;;;;32.63;19.30;;;;;;;2.11;80.73;100325.47;4123525;28;20206;-51
2022/01/17 09:26:41;;;;;;;37.47;20.85;;;;;;;2.07;80.62;100322.22;4123129;28;20210;-54
2022/01/17 09:28:44;;;;;;;39.90;22.25;;;;;;;2.14;81.37;100315.22;4108642;28;20527;-51
2022/01/17 09:30:46;;;;;;;34.78;21.73;;;;;;;2.26;81.18;100322.09;4124460;28;20756;-53
2022/01/17 09:32:48;;;;;;;37.20;23.33;;;;;;;2.34;80.74;100316.78;4090481;28;20232;-52
2022/01/17 09:34:50;;;;;;;34.15;19.13;;;;;;;2.31;80.61;100325.19;4109867;28;20443;-52
2022/01/17 09:36:53;;;;;;;26.45;19.05;;;;;;;2.31;80.40;100333.31;4109005;28;20238;-53
2022/01/17 09:38:56;;;;;;;41.30;21.83;;;;;;;2.29;80.70;100346.13;4107967;28;21038;-53
2022/01/17 09:40:58;;;;;;;34.78;21.45;;;;;;;2.33;80.76;100347.50;4089205;28;20644;-52
2022/01/17 09:43:18;;;;;;;34.90;20.88;;;;;;;2.33;80.46;100352.91;4105970;28;20206;-52
2022/01/17 09:45:22;;;;;;;33.28;21.83;;;;;;;2.43;80.50;100363.63;4107641;28;20238;-52
2022/01/17 09:47:25;;;;;;;29.35;19.30;;;;;;;2.40;79.98;100370.19;4127042;28;20245;-53
2022/01/17 09:49:43;;;;;;;34.35;20.90;;;;;;;2.46;80.27;100374.97;4126547;28;20210;-52